Time;durP1;ratioP1;P1;durP2;ratioP2;P2;SDS_P1;SDS_P2;PMS_P1;PMS_P2;Temp;Humidity;BMP_temperature;BMP_pressure;BME280_temperature;BME280_humidity;BME280_pressure;Samples;Min_cycle;Max_cycle;Signal;HPM_P1;HPM_P2
2023/01/03 00:01:22;;;;;;;10.85;3.70;;;3.90;99.90;;;;;;5140933;27;20039;-57
2023/01/03 00:03:48;;;;;;;8.98;3.58;;;4.00;99.90;;;;;;5129150;27;20039;-57
2023/01/03 00:06:18;;;;;;;11.15;3.90;;;3.90;99.90;;;;;;5162145;27;20159;-58
2023/01/03 00:08:44;;;;;;;9.25;3.33;;;3.90;99.90;;;;;;5143207;27;20125;-58
2023/01/03 00:11:15;;;;;;;10.90;4.15;;;3.90;99.90;;;;;;5161887;27;20874;-58
2023/01/03 00:13:41;;;;;;;11.60;3.35;;;4.00;99.90;;;;;;5160959;27;20129;-58
2023/01/03 00:16:18;;;;;;;14.50;3.90;;;3.90;99.90;;;;;;5161668;27;20039;-58
2023/01/03 00:18:44;;;;;;;6.85;2.72;;;4.00;99.90;;;;;;5161544;27;20094;-57
2023/01/03 00:21:10;;;;;;;10.65;2.90;;;4.00;99.90;;;;;;5142452;27;20057;-57
2023/01/03 00:23:36;;;;;;;7.05;2.63;;;4.00;99.90;;;;;;5161321;27;20537;-57
2023/01/03 00:26:13;;;;;;;11.60;3.63;;;4.00;99.90;;;;;;5160911;27;20031;-58
2023/01/03 00:28:38;;;;;;;9.20;3.67;;;4.00;99.90;;;;;;5161549;27;20406;-56
2023/01/03 00:31:11;;;;;;;6.57;3.00;;;4.00;99.90;;;;;;5160793;27;20035;-58
2023/01/03 00:33:38;;;;;;;8.23;2.83;;;4.00;99.90;;;;;;5161036;27;20052;-58
2023/01/03 00:36:06;;;;;;;8.88;2.60;;;4.00;99.90;;;;;;5161483;27;20041;-57
2023/01/03 00:38:33;;;;;;;10.73;2.97;;;4.10;99.90;;;;;;5160602;27;20043;-57
2023/01/03 00:41:05;;;;;;;8.45;2.58;;;4.20;99.90;;;;;;5161378;27;20034;-58
2023/01/03 00:43:32;;;;;;;7.05;2.10;;;4.10;99.90;;;;;;5141076;27;20051;-58
2023/01/03 00:45:57;;;;;;;6.60;2.10;;;4.10;99.90;;;;;;5161095;27;20098;-57
2023/01/03 00:48:23;;;;;;;6.97;2.17;;;4.10;99.90;;;;;;5160617;27;20066;-58
2023/01/03 00:50:49;;;;;;;10.18;2.30;;;4.20;99.90;;;;;;5160652;27;20042;-58
2023/01/03 00:53:15;;;;;;;9.00;2.75;;;4.20;99.90;;;;;;5161074;27;20042;-57
2023/01/03 00:55:40;;;;;;;7.68;1.75;;;4.20;99.90;;;;;;5109310;27;20081;-57
2023/01/03 00:58:06;;;;;;;9.85;2.63;;;4.30;99.90;;;;;;5140068;27;20590;-58
2023/01/03 01:00:32;;;;;;;8.20;2.50;;;4.20;99.90;;;;;;5139450;27;20118;-58
2023/01/03 01:02:57;;;;;;;9.32;2.25;;;4.30;99.90;;;;;;5140294;27;20035;-57
2023/01/03 01:05:23;;;;;;;5.55;1.73;;;4.30;99.90;;;;;;5139502;27;20069;-57
2023/01/03 01:07:49;;;;;;;6.85;2.03;;;4.30;99.90;;;;;;5140042;27;20038;-58
2023/01/03 01:10:18;;;;;;;10.85;2.50;;;4.30;99.90;;;;;;5140017;27;20050;-57
2023/01/03 01:12:44;;;;;;;9.02;2.20;;;4.30;99.90;;;;;;5138542;27;20043;-58
2023/01/03 01:15:10;;;;;;;9.70;2.47;;;4.40;99.90;;;;;;5139722;27;20054;-57
2023/01/03 01:17:37;;;;;;;7.93;2.15;;;4.40;99.90;;;;;;5139180;27;20032;-58
2023/01/03 01:20:04;;;;;;;7.38;2.05;;;4.40;99.90;;;;;;5139592;27;20039;-58
2023/01/03 01:22:29;;;;;;;8.68;2.53;;;4.50;99.90;;;;;;5139006;27;20100;-57
2023/01/03 01:24:55;;;;;;;9.25;3.22;;;4.50;99.90;;;;;;5139585;27;20047;-58
2023/01/03 01:27:21;;;;;;;7.65;1.75;;;4.50;99.90;;;;;;5139224;27;20103;-57
2023/01/03 01:29:47;;;;;;;8.10;2.13;;;4.50;99.90;;;;;;5138809;27;20527;-58
2023/01/03 01:32:13;;;;;;;9.95;2.40;;;4.50;99.90;;;;;;5139631;27;20063;-58
2023/01/03 01:34:38;;;;;;;8.45;2.08;;;4.50;99.90;;;;;;5138680;27;20054;-58
2023/01/03 01:37:04;;;;;;;8.80;2.22;;;4.50;99.90;;;;;;5139632;27;20078;-58
2023/01/03 01:39:30;;;;;;;8.18;1.92;;;4.50;99.90;;;;;;5138541;27;20126;-57
2023/01/03 01:44:58;;;;;;;9.13;2.20;;;4.50;99.90;;;;;;5139329;27;20053;-57
2023/01/03 01:47:30;;;;;;;9.07;2.30;;;4.50;99.90;;;;;;5138671;27;20119;-58
2023/01/03 01:49:59;;;;;;;9.18;3.28;;;4.50;99.90;;;;;;5139057;27;20047;-57
2023/01/03 01:52:25;;;;;;;9.82;2.92;;;4.60;99.90;;;;;;5138472;27;20473;-56
2023/01/03 01:54:53;;;;;;;9.27;2.28;;;4.50;99.90;;;;;;5138433;27;20047;-57
2023/01/03 01:57:21;;;;;;;8.20;3.30;;;4.50;99.90;;;;;;5139280;27;20118;-57
2023/01/03 01:59:47;;;;;;;8.80;2.20;;;4.60;99.90;;;;;;5119868;27;20043;-58
2023/01/03 02:02:19;;;;;;;10.25;2.65;;;4.50;99.90;;;;;;5139173;27;20055;-58
2023/01/03 02:04:48;;;;;;;8.63;2.73;;;4.60;99.90;;;;;;5138212;27;20039;-58
2023/01/03 02:07:15;;;;;;;9.90;2.97;;;4.60;99.90;;;;;;5138739;27;20273;-57
2023/01/03 02:09:41;;;;;;;9.45;2.63;;;4.60;99.90;;;;;;5138357;27;20094;-57
2023/01/03 02:15:29;;;;;;;7.43;2.22;;;4.60;99.90;;;;;;5119948;28;20088;-58
2023/01/03 02:18:05;;;;;;;9.65;3.08;;;4.70;99.90;;;;;;5138391;28;20043;-58
2023/01/03 02:20:44;;;;;;;9.40;2.40;;;4.60;99.90;;;;;;5137868;28;20051;-58
2023/01/03 02:23:43;;;;;;;8.93;2.55;;;4.70;99.90;;;;;;5138964;28;20043;-54
2023/01/03 02:26:22;;;;;;;10.85;2.80;;;4.60;99.90;;;;;;5138137;28;20047;-57
2023/01/03 02:28:53;;;;;;;8.73;2.33;;;4.50;99.90;;;;;;5139128;28;20589;-57
2023/01/03 02:31:31;;;;;;;7.20;2.70;;;4.50;99.90;;;;;;5138435;28;20071;-56
2023/01/03 02:34:28;;;;;;;11.18;2.90;;;4.50;99.90;;;;;;5119722;28;20860;-57
2023/01/03 02:37:13;;;;;;;8.73;2.80;;;4.40;99.90;;;;;;5120520;28;20163;-56
2023/01/03 02:39:53;;;;;;;8.10;2.58;;;4.40;99.90;;;;;;5153374;27;20035;-56
2023/01/03 02:45:18;;;;;;;9.63;3.05;;;4.20;99.90;;;;;;5159282;27;20050;-57
2023/01/03 02:48:04;;;;;;;8.15;2.80;;;4.10;99.90;;;;;;5158828;27;20035;-58
2023/01/03 02:50:37;;;;;;;7.03;2.70;;;4.10;99.90;;;;;;5159296;27;20035;-58
2023/01/03 02:53:08;;;;;;;10.13;3.38;;;4.10;99.90;;;;;;5159401;27;20031;-57
2023/01/03 02:55:36;;;;;;;13.02;2.78;;;4.10;99.90;;;;;;5145710;27;20039;-58
2023/01/03 02:58:08;;;;;;;11.13;2.80;;;4.00;99.90;;;;;;5138428;28;20035;-57
2023/01/03 03:00:40;;;;;;;9.43;2.97;;;3.90;99.90;;;;;;5137472;28;20047;-58
2023/01/03 03:03:12;;;;;;;7.43;2.65;;;3.90;99.90;;;;;;5138371;28;20047;-57
2023/01/03 03:05:56;;;;;;;9.48;3.22;;;3.80;99.90;;;;;;5138160;28;20043;-58
2023/01/03 03:08:22;;;;;;;9.63;2.83;;;3.70;99.90;;;;;;5138185;28;20126;-57
2023/01/03 03:13:38;;;;;;;11.13;2.97;;;3.60;99.90;;;;;;5137519;28;20187;-58
2023/01/03 03:17:05;;;;;;;7.80;3.40;;;3.60;99.90;;;;;;5138335;28;20051;-58
2023/01/03 03:25:32;;;;;;;10.32;3.35;;;3.50;99.90;;;;;;5141534;27;20597;-59
2023/01/03 03:30:54;;;;;;;8.55;3.40;;;3.50;99.90;;;;;;5141183;27;20434;-58
2023/01/03 03:33:21;;;;;;;10.07;3.03;;;3.40;99.90;;;;;;5141768;27;20100;-58
2023/01/03 03:35:57;;;;;;;9.30;2.90;;;3.40;99.90;;;;;;5105909;27;20054;-57
2023/01/03 03:38:32;;;;;;;12.52;3.28;;;3.30;99.90;;;;;;5140711;27;20406;-57
2023/01/03 03:47:37;;;;;;;7.00;2.88;;;3.20;99.90;;;;;;5140831;27;20144;-58
2023/01/03 03:50:09;;;;;;;10.95;3.35;;;3.20;99.90;;;;;;5141602;27;20039;-58
2023/01/03 03:52:36;;;;;;;7.45;3.00;;;3.20;99.90;;;;;;5141209;27;20040;-58
2023/01/03 03:55:08;;;;;;;9.05;2.83;;;3.20;99.90;;;;;;5141012;27;20066;-57
2023/01/03 03:58:01;;;;;;;8.63;3.00;;;3.10;99.90;;;;;;5141791;27;20391;-57
2023/01/03 04:00:33;;;;;;;9.70;3.25;;;3.10;99.90;;;;;;5139831;27;20058;-57
2023/01/03 04:03:01;;;;;;;9.20;2.78;;;3.20;99.90;;;;;;5122976;27;20046;-58
2023/01/03 04:05:31;;;;;;;10.35;2.95;;;3.10;99.90;;;;;;5122288;27;20087;-56
2023/01/03 04:07:57;;;;;;;6.63;2.50;;;3.40;99.90;;;;;;5141067;27;20043;-57
2023/01/03 04:10:23;;;;;;;8.43;2.67;;;3.00;99.90;;;;;;5141687;27;20074;-57
2023/01/03 04:12:50;;;;;;;7.75;2.85;;;2.90;99.90;;;;;;5140141;27;20039;-58
2023/01/03 04:15:16;;;;;;;7.13;2.95;;;2.90;99.90;;;;;;5140925;27;20125;-57
2023/01/03 04:17:42;;;;;;;8.43;2.70;;;3.00;99.90;;;;;;5140864;27;20475;-57
2023/01/03 04:20:08;;;;;;;7.72;2.75;;;3.00;99.90;;;;;;5140697;27;20123;-57
2023/01/03 04:22:34;;;;;;;7.90;2.63;;;3.00;99.90;;;;;;5140634;27;20035;-57
2023/01/03 04:25:00;;;;;;;11.68;3.47;;;3.00;99.90;;;;;;5140776;27;20394;-57
2023/01/03 04:27:26;;;;;;;11.30;3.10;;;3.00;99.90;;;;;;5140977;27;20054;-57
2023/01/03 04:29:51;;;;;;;7.30;3.00;;;2.90;99.90;;;;;;5139745;27;20047;-57
2023/01/03 04:32:17;;;;;;;8.70;3.67;;;3.00;99.90;;;;;;5140663;27;20126;-56
2023/01/03 04:34:42;;;;;;;9.27;3.30;;;3.10;99.90;;;;;;5139822;27;20107;-57
2023/01/03 04:37:08;;;;;;;10.20;2.58;;;3.00;99.90;;;;;;5140693;27;20039;-56
2023/01/03 04:39:34;;;;;;;8.93;3.40;;;3.10;99.90;;;;;;5121432;27;20050;-57
2023/01/03 04:42:00;;;;;;;8.00;3.03;;;3.10;99.90;;;;;;5140276;27;20039;-57
2023/01/03 04:44:26;;;;;;;12.20;3.42;;;3.10;99.90;;;;;;5140497;27;20055;-57
2023/01/03 04:46:52;;;;;;;7.32;3.10;;;3.10;99.90;;;;;;5121225;27;20064;-57
2023/01/03 04:49:19;;;;;;;7.65;3.20;;;3.10;99.90;;;;;;5140277;27;20421;-57
2023/01/03 04:51:44;;;;;;;7.88;3.15;;;3.10;99.90;;;;;;5139779;27;20047;-57
2023/01/03 04:54:10;;;;;;;10.23;3.80;;;3.10;99.90;;;;;;5141479;27;20398;-57
2023/01/03 04:56:37;;;;;;;10.38;3.35;;;3.20;99.90;;;;;;5159867;27;20099;-57
2023/01/03 04:59:03;;;;;;;9.80;3.22;;;3.10;99.90;;;;;;5161100;27;20023;-57
2023/01/03 05:01:29;;;;;;;8.30;3.30;;;3.20;99.90;;;;;;5160698;27;20042;-56
2023/01/03 05:03:59;;;;;;;7.32;3.22;;;3.20;99.90;;;;;;5160152;27;20035;-58
2023/01/03 05:06:25;;;;;;;9.95;3.40;;;3.10;99.90;;;;;;5160753;27;20055;-57
2023/01/03 05:08:51;;;;;;;9.75;3.42;;;3.10;99.90;;;;;;5160133;27;20042;-59
2023/01/03 05:11:17;;;;;;;9.45;3.35;;;3.20;99.90;;;;;;5160519;27;20122;-58
2023/01/03 05:13:43;;;;;;;10.52;4.35;;;3.20;99.90;;;;;;5159579;27;20035;-58
2023/01/03 05:16:11;;;;;;;12.30;4.43;;;3.20;99.90;;;;;;5160535;27;20039;-58
2023/01/03 05:18:37;;;;;;;9.15;3.75;;;3.30;99.90;;;;;;5160373;27;20050;-59
2023/01/03 05:26:45;;;;;;;10.57;5.15;;;3.40;99.90;;;;;;5159590;27;20547;-55
2023/01/03 05:29:15;;;;;;;9.80;4.57;;;3.80;99.90;;;;;;5160006;27;20465;-57
2023/01/03 05:31:40;;;;;;;11.13;4.78;;;3.20;99.90;;;;;;5160469;27;20038;-56
2023/01/03 05:34:06;;;;;;;10.55;5.20;;;3.40;99.90;;;;;;5158549;27;20073;-55
2023/01/03 05:36:32;;;;;;;12.80;5.43;;;3.30;99.90;;;;;;5160353;27;20074;-57
2023/01/03 05:38:58;;;;;;;11.57;5.40;;;3.40;99.90;;;;;;5159245;27;20520;-57
2023/01/03 05:44:07;;;;;;;13.10;6.70;;;3.30;99.90;;;;;;5159562;27;20060;-57
2023/01/03 05:46:33;;;;;;;13.77;6.65;;;3.30;99.90;;;;;;5159747;27;20043;-57
2023/01/03 05:48:59;;;;;;;11.45;6.43;;;3.40;99.90;;;;;;5160130;27;20484;-57
2023/01/03 05:51:24;;;;;;;13.23;7.53;;;3.40;99.90;;;;;;5159204;27;20053;-57
2023/01/03 05:53:50;;;;;;;17.40;7.45;;;3.30;99.90;;;;;;5141567;27;20041;-57
2023/01/03 05:56:16;;;;;;;12.93;7.35;;;3.30;99.90;;;;;;5139889;27;20073;-57
2023/01/03 05:58:44;;;;;;;15.25;7.20;;;3.40;99.90;;;;;;5135708;27;20035;-57
2023/01/03 06:01:12;;;;;;;16.33;7.15;;;3.40;99.90;;;;;;5134856;27;20046;-57
2023/01/03 06:03:38;;;;;;;14.02;7.60;;;3.40;99.90;;;;;;5116229;28;20049;-58
2023/01/03 06:06:05;;;;;;;15.10;7.75;;;3.40;99.90;;;;;;5099902;27;20107;-57
2023/01/03 06:08:32;;;;;;;14.38;7.82;;;3.40;99.90;;;;;;5115481;28;20070;-57
2023/01/03 06:10:58;;;;;;;14.88;8.55;;;3.40;99.90;;;;;;5134945;27;20062;-57
2023/01/03 06:13:23;;;;;;;17.58;8.35;;;3.40;99.90;;;;;;5115769;28;20039;-57
2023/01/03 06:18:36;;;;;;;17.95;8.40;;;3.40;99.90;;;;;;5092264;28;20058;-56
2023/01/03 06:21:03;;;;;;;17.15;8.90;;;3.40;99.90;;;;;;5134000;28;20128;-57
2023/01/03 06:23:28;;;;;;;16.20;8.60;;;3.30;99.90;;;;;;5116102;28;20047;-58
2023/01/03 06:25:54;;;;;;;19.15;9.20;;;3.40;99.90;;;;;;5134289;28;20071;-58
2023/01/03 06:28:20;;;;;;;20.10;9.10;;;3.20;99.90;;;;;;5134984;28;20115;-57
2023/01/03 06:30:45;;;;;;;19.23;9.68;;;3.30;99.90;;;;;;5134035;28;20039;-57
2023/01/03 06:33:11;;;;;;;16.90;10.10;;;3.30;99.90;;;;;;5135107;28;20463;-56
2023/01/03 06:35:38;;;;;;;20.13;10.30;;;3.20;99.90;;;;;;5134207;28;20051;-57
2023/01/03 06:38:03;;;;;;;20.95;10.27;;;3.20;99.90;;;;;;5116215;28;20099;-58
2023/01/03 06:40:29;;;;;;;17.85;10.75;;;3.20;99.90;;;;;;5134914;28;20088;-58
2023/01/03 06:42:55;;;;;;;19.38;10.50;;;3.20;99.90;;;;;;5133927;28;20043;-57
2023/01/03 06:53:44;;;;;;;17.67;10.05;;;3.10;99.90;;;;;;5142409;27;20072;-58
2023/01/03 06:56:10;;;;;;;17.42;10.90;;;3.00;99.90;;;;;;5140243;27;20055;-56
2023/01/03 06:58:36;;;;;;;19.63;11.65;;;2.90;99.90;;;;;;5137308;27;20090;-56
2023/01/03 07:01:03;;;;;;;22.63;12.40;;;3.00;99.90;;;;;;5137911;27;20031;-56
2023/01/03 07:03:32;;;;;;;19.45;11.23;;;2.90;99.90;;;;;;5138040;27;20387;-57
2023/01/03 07:05:58;;;;;;;23.38;12.15;;;3.00;99.90;;;;;;5138409;27;20514;-57
2023/01/03 07:08:24;;;;;;;27.90;11.48;;;2.90;99.90;;;;;;5137802;27;20043;-56
2023/01/03 07:10:49;;;;;;;22.10;12.90;;;2.90;99.90;;;;;;5137840;27;20415;-56
2023/01/03 07:15:59;;;;;;;20.33;12.50;;;2.80;99.90;;;;;;5138186;27;20050;-56
2023/01/03 07:18:25;;;;;;;22.45;12.50;;;2.80;99.90;;;;;;5138096;27;20102;-56
2023/01/03 07:20:50;;;;;;;26.17;12.57;;;2.80;99.90;;;;;;5115626;28;20051;-56
2023/01/03 07:23:16;;;;;;;26.00;13.48;;;2.60;99.90;;;;;;5117454;28;20067;-57
2023/01/03 07:25:43;;;;;;;25.73;13.82;;;2.70;99.90;;;;;;5116605;28;20047;-56
2023/01/03 07:28:11;;;;;;;29.38;14.27;;;2.80;99.90;;;;;;5117318;28;20043;-56
2023/01/03 07:30:38;;;;;;;29.90;14.80;;;2.60;99.90;;;;;;5116611;28;20116;-56
2023/01/03 07:33:04;;;;;;;31.83;14.65;;;2.70;99.90;;;;;;5116074;28;20044;-57
2023/01/03 07:35:34;;;;;;;24.30;13.35;;;2.70;99.90;;;;;;5116796;28;20097;-56
2023/01/03 07:38:01;;;;;;;29.85;14.93;;;2.60;99.90;;;;;;5116580;28;20057;-56
2023/01/03 07:40:26;;;;;;;23.20;12.63;;;2.60;99.90;;;;;;5119713;28;20073;-56
2023/01/03 07:45:43;;;;;;;27.77;13.52;;;2.60;99.90;;;;;;5120102;28;20082;-55
2023/01/03 07:48:10;;;;;;;28.17;14.70;;;2.50;99.90;;;;;;5120439;28;20126;-54
2023/01/03 07:50:36;;;;;;;25.67;12.65;;;2.40;99.90;;;;;;5120193;28;20052;-56
2023/01/03 07:53:03;;;;;;;23.25;13.18;;;2.50;99.90;;;;;;5120911;28;20039;-56
2023/01/03 07:55:31;;;;;;;25.65;13.52;;;2.60;99.90;;;;;;5132034;27;20049;-57
2023/01/03 07:57:57;;;;;;;25.90;13.02;;;3.20;99.90;;;;;;5141564;27;20043;-57
2023/01/03 08:00:22;;;;;;;24.83;14.25;;;2.50;99.90;;;;;;5139959;27;20049;-57
2023/01/03 08:02:52;;;;;;;27.50;12.77;;;2.50;99.90;;;;;;5141121;27;20043;-56
2023/01/03 08:05:17;;;;;;;26.67;12.90;;;2.60;99.90;;;;;;5139841;27;20062;-55
2023/01/03 08:07:43;;;;;;;25.55;12.70;;;2.60;99.90;;;;;;5140771;27;20447;-56
2023/01/03 08:15:38;;;;;;;26.02;12.90;;;2.50;99.90;;;;;;5140587;27;20115;-56
2023/01/03 08:18:04;;;;;;;22.58;10.18;;;2.60;99.90;;;;;;5138872;27;20076;-56
2023/01/03 08:20:30;;;;;;;22.67;10.35;;;2.50;99.90;;;;;;5138695;27;20061;-57
2023/01/03 08:22:59;;;;;;;20.30;10.80;;;2.50;99.90;;;;;;5140971;27;20122;-57
2023/01/03 08:25:24;;;;;;;22.30;10.88;;;2.60;99.90;;;;;;5139870;27;20050;-56
2023/01/03 08:27:50;;;;;;;21.48;10.98;;;2.50;99.90;;;;;;5140641;27;20047;-57
2023/01/03 08:30:16;;;;;;;21.60;11.35;;;2.60;99.90;;;;;;5138299;27;20055;-56
2023/01/03 08:32:41;;;;;;;22.95;10.70;;;2.50;99.90;;;;;;5140789;27;20086;-57
2023/01/03 08:35:08;;;;;;;21.58;10.07;;;2.60;99.90;;;;;;5139977;27;20072;-56
2023/01/03 08:37:34;;;;;;;19.20;10.57;;;2.50;99.90;;;;;;5140077;27;20055;-57
2023/01/03 08:40:03;;;;;;;19.75;9.98;;;2.70;99.90;;;;;;5140401;27;20515;-57
2023/01/03 08:42:29;;;;;;;20.52;9.00;;;2.70;99.90;;;;;;5139476;27;20545;-57
2023/01/03 08:45:03;;;;;;;19.08;9.82;;;2.60;99.90;;;;;;5140333;27;20050;-56
2023/01/03 08:47:29;;;;;;;20.63;10.55;;;2.70;99.90;;;;;;5139570;27;20039;-57
2023/01/03 08:49:56;;;;;;;21.08;10.75;;;2.70;99.90;;;;;;5140517;27;20102;-56
2023/01/03 08:52:22;;;;;;;17.65;9.18;;;3.20;99.90;;;;;;5139882;27;20060;-57
2023/01/03 08:54:48;;;;;;;20.00;9.63;;;2.70;99.90;;;;;;5133133;27;20046;-58
2023/01/03 08:57:14;;;;;;;18.38;9.60;;;2.70;99.90;;;;;;5119021;28;20074;-57
2023/01/03 08:59:39;;;;;;;20.70;10.00;;;2.80;99.90;;;;;;5118920;28;20047;-58
2023/01/03 09:02:05;;;;;;;19.50;10.00;;;2.80;99.90;;;;;;5119481;28;20079;-58
2023/01/03 09:04:31;;;;;;;21.05;9.45;;;2.80;99.90;;;;;;5117344;28;20104;-57
2023/01/03 09:06:56;;;;;;;17.77;9.82;;;2.80;99.90;;;;;;5119353;28;20066;-58
2023/01/03 09:09:22;;;;;;;19.80;9.50;;;2.90;99.90;;;;;;5118663;28;20049;-57
2023/01/03 09:11:48;;;;;;;20.50;10.20;;;2.90;99.90;;;;;;5118313;28;20051;-58
2023/01/03 09:14:13;;;;;;;22.08;10.48;;;2.80;99.90;;;;;;5119292;28;20138;-57
2023/01/03 09:16:39;;;;;;;21.02;11.18;;;2.80;99.90;;;;;;5136015;27;20032;-58
2023/01/03 09:19:05;;;;;;;20.08;10.80;;;3.00;99.90;;;;;;5139857;27;20570;-58
2023/01/03 09:21:30;;;;;;;20.02;11.32;;;3.00;99.90;;;;;;5151985;27;20046;-56
2023/01/03 09:23:57;;;;;;;20.15;9.98;;;2.90;99.90;;;;;;5158470;27;20103;-57
2023/01/03 09:26:23;;;;;;;18.70;9.77;;;2.90;99.90;;;;;;5158583;27;20045;-57
2023/01/03 09:28:49;;;;;;;22.17;11.77;;;3.00;99.90;;;;;;5159045;27;20050;-58
2023/01/03 09:31:15;;;;;;;25.13;12.43;;;2.70;99.90;;;;;;5159422;27;20058;-58
2023/01/03 09:33:41;;;;;;;21.63;12.02;;;2.70;99.90;;;;;;5140300;27;20071;-57
2023/01/03 09:36:07;;;;;;;21.83;11.73;;;2.70;99.90;;;;;;5159266;27;20039;-58
2023/01/03 09:38:32;;;;;;;22.25;12.30;;;2.60;99.90;;;;;;5122731;27;20562;-57
2023/01/03 09:41:01;;;;;;;22.92;12.98;;;2.50;99.90;;;;;;5159085;27;20153;-57
2023/01/03 09:43:35;;;;;;;22.88;13.48;;;2.60;99.90;;;;;;5139555;27;20034;-56
2023/01/03 09:46:02;;;;;;;25.55;13.30;;;2.60;99.90;;;;;;5159699;27;20030;-58
2023/01/03 09:48:37;;;;;;;19.65;12.60;;;2.50;99.90;;;;;;5159426;27;20498;-57
2023/01/03 10:03:42;;;;;;;22.67;11.35;;;2.40;99.90;;;;;;5140439;27;20546;-57
2023/01/03 10:05:34;;;;;;;16.83;9.55;;;2.50;99.90;;;;;;5150408;27;20049;-57
2023/01/03 10:08:21;;;;;;;21.40;10.48;;;2.60;99.90;;;;;;5140118;27;20529;-57
2023/01/03 10:11:01;;;;;;;38.47;10.30;;;2.60;99.90;;;;;;5159904;27;20043;-56
2023/01/03 10:13:57;;;;;;;31.45;11.82;;;2.60;99.90;;;;;;5158209;27;20079;-58
2023/01/03 10:16:39;;;;;;;29.45;10.52;;;2.40;99.90;;;;;;5158868;27;20039;-57
2023/01/03 10:19:29;;;;;;;27.63;9.80;;;2.60;99.90;;;;;;5159943;27;20074;-58
2023/01/03 10:22:03;;;;;;;25.33;10.45;;;2.70;99.90;;;;;;5158397;27;20469;-58
2023/01/03 10:24:56;;;;;;;25.77;10.32;;;2.70;99.90;;;;;;5159445;27;20095;-58
2023/01/03 10:27:25;;;;;;;28.30;11.40;;;2.60;99.90;;;;;;5142105;27;20050;-57
2023/01/03 10:29:55;;;;;;;27.95;11.80;;;2.70;99.90;;;;;;5163041;27;20039;-57
2023/01/03 10:32:33;;;;;;;26.67;11.23;;;2.80;99.90;;;;;;5163381;27;20039;-58
2023/01/03 10:35:14;;;;;;;22.13;11.43;;;2.90;99.90;;;;;;5126979;27;20051;-56
2023/01/03 10:37:40;;;;;;;32.78;12.93;;;2.90;99.90;;;;;;5163279;27;20102;-58
2023/01/03 10:40:06;;;;;;;25.27;12.13;;;2.90;99.90;;;;;;5163680;27;20030;-58
2023/01/03 10:42:35;;;;;;;29.83;12.80;;;2.90;99.90;;;;;;5143564;27;20043;-57
2023/01/03 10:45:03;;;;;;;21.75;12.07;;;3.00;99.90;;;;;;5163476;27;20107;-58
2023/01/03 10:47:29;;;;;;;30.65;12.43;;;3.00;99.90;;;;;;5162757;27;20034;-58
2023/01/03 10:49:59;;;;;;;28.23;12.88;;;3.20;99.90;;;;;;5163475;27;20078;-58
2023/01/03 10:52:33;;;;;;;33.25;12.88;;;3.20;99.90;;;;;;5144059;27;20074;-57
2023/01/03 10:55:03;;;;;;;33.10;13.23;;;3.00;99.90;;;;;;5156507;27;20049;-57
2023/01/03 10:57:37;;;;;;;25.80;13.98;;;3.20;99.90;;;;;;5153295;27;20107;-58
2023/01/03 11:00:26;;;;;;;30.10;13.32;;;3.10;99.90;;;;;;5149372;27;20553;-56
2023/01/03 11:02:54;;;;;;;35.00;13.80;;;3.40;99.90;;;;;;5132310;27;20035;-58
2023/01/03 11:05:25;;;;;;;44.35;13.93;;;3.40;99.90;;;;;;5155455;27;20481;-58
2023/01/03 11:08:02;;;;;;;26.83;13.57;;;3.40;99.90;;;;;;5143735;27;20067;-58
2023/01/03 11:10:52;;;;;;;31.83;14.70;;;3.40;99.90;;;;;;5162540;27;20035;-58
2023/01/03 11:13:22;;;;;;;32.17;14.50;;;3.40;99.90;;;;;;5136096;27;20043;-58
2023/01/03 11:15:54;;;;;;;32.67;14.50;;;3.70;99.90;;;;;;5149732;27;20034;-58
2023/01/03 11:18:20;;;;;;;32.35;14.45;;;3.40;99.90;;;;;;5152665;27;20038;-56
2023/01/03 11:21:00;;;;;;;31.50;14.20;;;3.60;99.90;;;;;;5161494;27;20073;-56
2023/01/03 11:23:45;;;;;;;33.40;15.07;;;3.60;99.90;;;;;;5135729;27;20078;-58
2023/01/03 11:26:20;;;;;;;35.72;16.42;;;3.80;99.90;;;;;;5149186;27;20119;-57
2023/01/03 11:28:51;;;;;;;38.25;17.67;;;4.00;99.90;;;;;;5130510;27;20047;-58
2023/01/03 11:31:39;;;;;;;37.40;16.55;;;4.00;99.90;;;;;;5130128;27;20099;-57
2023/01/03 11:34:52;;;;;;;35.75;16.90;;;4.10;99.90;;;;;;5150589;27;20054;-58
2023/01/03 11:37:46;;;;;;;35.72;16.10;;;4.00;99.90;;;;;;5143969;27;20062;-57
2023/01/03 11:40:29;;;;;;;36.00;18.10;;;4.00;99.90;;;;;;5141021;27;20836;-57
2023/01/03 11:43:10;;;;;;;43.00;19.90;;;4.40;99.90;;;;;;5140426;27;20035;-57
2023/01/03 11:45:44;;;;;;;42.13;21.48;;;4.40;99.90;;;;;;5141789;27;20058;-58
2023/01/03 11:48:47;;;;;;;46.30;19.58;;;4.40;99.90;;;;;;5140629;27;20046;-57
2023/01/03 11:51:44;;;;;;;45.50;20.83;;;4.20;99.90;;;;;;5140421;27;20051;-58
2023/01/03 11:54:38;;;;;;;44.92;20.52;;;4.30;99.90;;;;;;5142258;27;20097;-58
2023/01/03 11:57:54;;;;;;;47.30;21.23;;;4.30;99.90;;;;;;5161762;27;20047;-58
2023/01/03 12:00:31;;;;;;;41.78;20.63;;;4.60;99.90;;;;;;5056092;28;20109;-58
2023/01/03 12:03:08;;;;;;;42.88;22.25;;;4.60;99.90;;;;;;5054098;28;20057;-58
2023/01/03 12:05:45;;;;;;;48.75;22.88;;;4.70;99.90;;;;;;5117278;27;20051;-57
2023/01/03 12:08:29;;;;;;;44.45;20.52;;;4.60;99.90;;;;;;5156583;27;20049;-58
2023/01/03 12:11:09;;;;;;;51.00;22.88;;;4.80;99.90;;;;;;5157677;27;20041;-58
2023/01/03 12:13:58;;;;;;;49.22;23.65;;;4.80;99.90;;;;;;5140090;27;20038;-56
2023/01/03 12:16:31;;;;;;;53.17;24.35;;;4.60;99.90;;;;;;5160948;27;20054;-58
2023/01/03 12:19:30;;;;;;;55.78;23.70;;;4.70;99.90;;;;;;5161542;27;20042;-58
2023/01/03 12:22:03;;;;;;;57.30;25.05;;;5.10;99.90;;;;;;5142674;27;20038;-58
2023/01/03 12:24:40;;;;;;;52.97;23.48;;;4.80;99.90;;;;;;5161210;27;20047;-57
2023/01/03 12:27:33;;;;;;;49.15;22.23;;;5.00;99.90;;;;;;5161414;27;20114;-58
2023/01/03 12:30:13;;;;;;;56.53;25.05;;;5.10;99.90;;;;;;5160552;27;20063;-57
2023/01/03 12:32:46;;;;;;;55.33;25.77;;;5.00;99.90;;;;;;5161356;27;20107;-57
2023/01/03 12:35:29;;;;;;;58.65;25.45;;;5.30;99.90;;;;;;5160807;27;20129;-56
2023/01/03 12:37:56;;;;;;;57.22;25.02;;;5.20;99.90;;;;;;5141524;27;20053;-56
2023/01/03 12:40:52;;;;;;;60.10;26.98;;;5.40;99.90;;;;;;5161085;27;20542;-57
2023/01/03 12:43:44;;;;;;;55.42;25.65;;;5.40;99.90;;;;;;5120222;27;20129;-56
2023/01/03 12:46:20;;;;;;;53.40;24.30;;;5.50;99.90;;;;;;5160192;27;20067;-57
2023/01/03 12:48:48;;;;;;;56.20;23.10;;;5.30;99.90;;;;;;5161494;27;20035;-56
2023/01/03 12:51:19;;;;;;;61.22;25.25;;;5.60;99.90;;;;;;5155801;27;20046;-56
2023/01/03 12:53:50;;;;;;;54.60;25.08;;;5.60;99.90;;;;;;5142279;27;20116;-55
2023/01/03 12:56:34;;;;;;;56.33;25.10;;;5.40;99.90;;;;;;5158450;27;20054;-57
2023/01/03 12:59:21;;;;;;;53.08;24.77;;;5.30;99.90;;;;;;5159763;27;20122;-56
2023/01/03 13:01:57;;;;;;;50.72;24.40;;;5.30;99.90;;;;;;5160604;27;20039;-57
2023/01/03 13:04:35;;;;;;;50.50;24.00;;;5.70;99.90;;;;;;5141456;27;20043;-57
2023/01/03 13:07:15;;;;;;;53.47;23.42;;;5.60;99.90;;;;;;5160352;27;20050;-56
2023/01/03 13:09:50;;;;;;;52.13;24.83;;;5.40;99.90;;;;;;5159926;27;20402;-56
2023/01/03 13:12:20;;;;;;;58.42;23.98;;;5.50;99.90;;;;;;5159654;27;20042;-57
2023/01/03 13:15:17;;;;;;;56.20;24.25;;;5.50;99.90;;;;;;5160426;27;20039;-57
2023/01/03 13:17:45;;;;;;;49.13;23.23;;;5.80;99.90;;;;;;5099519;27;20062;-57
2023/01/03 13:20:24;;;;;;;41.67;20.60;;;5.60;99.90;;;;;;5160124;27;20066;-57
2023/01/03 13:22:54;;;;;;;49.05;22.05;;;5.50;99.90;;;;;;5159986;27;20053;-56
2023/01/03 13:25:29;;;;;;;42.05;18.88;;;6.00;99.90;;;;;;5159268;27;20051;-57
2023/01/03 13:27:57;;;;;;;45.42;21.92;;;5.90;99.90;;;;;;5160218;27;20102;-54
2023/01/03 13:30:26;;;;;;;43.17;21.40;;;5.70;99.90;;;;;;5159250;27;20551;-56
2023/01/03 13:33:10;;;;;;;38.28;20.98;;;6.10;99.90;;;;;;5159364;27;20038;-56
2023/01/03 13:35:41;;;;;;;38.67;18.45;;;5.90;99.90;;;;;;5159385;27;20243;-54
2023/01/03 13:38:17;;;;;;;38.80;20.30;;;5.90;99.90;;;;;;5158953;27;20047;-55
2023/01/03 13:40:47;;;;;;;38.80;18.83;;;5.80;99.90;;;;;;5159664;27;20051;-54
2023/01/03 13:43:17;;;;;;;39.53;20.23;;;6.30;99.90;;;;;;5158731;27;20072;-57
2023/01/03 13:45:43;;;;;;;38.00;19.92;;;5.90;99.90;;;;;;5140617;27;20568;-57
2023/01/03 13:48:22;;;;;;;37.72;18.80;;;5.80;99.90;;;;;;5159131;27;20042;-55
2023/01/03 13:51:24;;;;;;;41.05;20.60;;;6.10;99.90;;;;;;5158390;27;20043;-56
2023/01/03 13:54:00;;;;;;;33.17;17.77;;;5.90;99.90;;;;;;5159644;27;20073;-55
2023/01/03 13:56:29;;;;;;;37.35;18.27;;;6.40;99.90;;;;;;5136911;27;20042;-52
2023/01/03 13:59:18;;;;;;;37.75;18.55;;;6.30;99.90;;;;;;5138835;27;20036;-54
2023/01/03 14:02:15;;;;;;;38.67;20.58;;;6.30;99.90;;;;;;5119335;27;20129;-56
2023/01/03 14:05:10;;;;;;;33.20;18.77;;;5.90;99.90;;;;;;5096517;27;20046;-54
2023/01/03 14:07:39;;;;;;;30.20;16.65;;;6.40;99.90;;;;;;5116000;27;20054;-55
2023/01/03 14:10:20;;;;;;;34.67;19.30;;;6.50;99.90;;;;;;5138578;27;20039;-54
2023/01/03 14:13:01;;;;;;;38.38;18.70;;;6.20;99.90;;;;;;5138044;27;20094;-55
2023/01/03 14:15:30;;;;;;;39.85;19.85;;;6.40;99.90;;;;;;5138550;27;20054;-53
2023/01/03 14:18:10;;;;;;;39.33;18.92;;;6.50;99.90;;;;;;5137817;28;20054;-55